sensor_id;sensor_type;location;lat;lon;timestamp;temperature;humidity
63051;SHT30;49136;47.416;19.402;2022-11-24T00:01:51;4.93;99.99
63051;SHT30;49136;47.416;19.402;2022-11-24T00:04:17;4.94;99.99
63051;SHT30;49136;47.416;19.402;2022-11-24T00:06:42;4.93;99.99
63051;SHT30;49136;47.416;19.402;2022-11-24T00:09:09;4.93;99.99
63051;SHT30;49136;47.416;19.402;2022-11-24T00:11:35;4.97;99.99
63051;SHT30;49136;47.416;19.402;2022-11-24T00:14:02;4.94;99.99
63051;SHT30;49136;47.416;19.402;2022-11-24T00:16:30;4.95;99.99
63051;SHT30;49136;47.416;19.402;2022-11-24T00:18:58;4.97;99.99
63051;SHT30;49136;47.416;19.402;2022-11-24T00:21:25;4.94;99.99
63051;SHT30;49136;47.416;19.402;2022-11-24T00:23:51;4.93;99.99
63051;SHT30;49136;47.416;19.402;2022-11-24T00:26:37;4.93;99.99
63051;SHT30;49136;47.416;19.402;2022-11-24T00:29:05;4.98;99.99
63051;SHT30;49136;47.416;19.402;2022-11-24T00:31:37;4.95;99.99
63051;SHT30;49136;47.416;19.402;2022-11-24T00:34:05;5.00;99.99
63051;SHT30;49136;47.416;19.402;2022-11-24T00:36:32;4.95;99.99
63051;SHT30;49136;47.416;19.402;2022-11-24T00:39:00;4.97;99.99
63051;SHT30;49136;47.416;19.402;2022-11-24T00:41:27;4.98;99.99
63051;SHT30;49136;47.416;19.402;2022-11-24T00:43:53;4.94;99.99
63051;SHT30;49136;47.416;19.402;2022-11-24T00:46:19;4.97;99.99
63051;SHT30;49136;47.416;19.402;2022-11-24T00:48:45;4.98;99.99
63051;SHT30;49136;47.416;19.402;2022-11-24T00:51:13;4.97;99.99
63051;SHT30;49136;47.416;19.402;2022-11-24T00:53:38;4.97;99.99
63051;SHT30;49136;47.416;19.402;2022-11-24T00:56:04;5.00;99.99
63051;SHT30;49136;47.416;19.402;2022-11-24T00:58:31;5.00;99.99
63051;SHT30;49136;47.416;19.402;2022-11-24T01:01:05;4.97;99.99
63051;SHT30;49136;47.416;19.402;2022-11-24T01:03:31;4.98;99.99
63051;SHT30;49136;47.416;19.402;2022-11-24T01:06:02;4.95;99.99
63051;SHT30;49136;47.416;19.402;2022-11-24T01:08:27;4.98;99.99
63051;SHT30;49136;47.416;19.402;2022-11-24T01:10:53;4.97;99.99
63051;SHT30;49136;47.416;19.402;2022-11-24T01:13:18;4.94;99.99
63051;SHT30;49136;47.416;19.402;2022-11-24T01:15:43;4.93;99.99
63051;SHT30;49136;47.416;19.402;2022-11-24T01:18:09;4.94;99.99
63051;SHT30;49136;47.416;19.402;2022-11-24T01:20:35;4.95;99.99
63051;SHT30;49136;47.416;19.402;2022-11-24T01:23:00;4.94;99.99
63051;SHT30;49136;47.416;19.402;2022-11-24T01:25:26;4.95;99.99
63051;SHT30;49136;47.416;19.402;2022-11-24T01:27:51;4.97;99.99
63051;SHT30;49136;47.416;19.402;2022-11-24T01:30:16;4.98;99.99
63051;SHT30;49136;47.416;19.402;2022-11-24T01:32:42;4.97;99.99
63051;SHT30;49136;47.416;19.402;2022-11-24T01:35:08;4.95;99.99
63051;SHT30;49136;47.416;19.402;2022-11-24T01:37:33;4.97;99.99
63051;SHT30;49136;47.416;19.402;2022-11-24T01:39:59;4.97;99.99
63051;SHT30;49136;47.416;19.402;2022-11-24T01:42:24;4.97;99.99
63051;SHT30;49136;47.416;19.402;2022-11-24T01:47:50;5.00;99.99
63051;SHT30;49136;47.416;19.402;2022-11-24T01:50:15;5.00;99.99
63051;SHT30;49136;47.416;19.402;2022-11-24T01:52:45;5.03;99.99
63051;SHT30;49136;47.416;19.402;2022-11-24T01:55:16;5.08;99.99
63051;SHT30;49136;47.416;19.402;2022-11-24T01:57:50;5.03;99.99
63051;SHT30;49136;47.416;19.402;2022-11-24T02:00:17;5.03;99.99
63051;SHT30;49136;47.416;19.402;2022-11-24T02:02:43;5.01;99.99
63051;SHT30;49136;47.416;19.402;2022-11-24T02:07:41;5.01;99.99
63051;SHT30;49136;47.416;19.402;2022-11-24T02:10:12;5.00;99.99
63051;SHT30;49136;47.416;19.402;2022-11-24T02:12:40;5.00;99.99
63051;SHT30;49136;47.416;19.402;2022-11-24T02:15:08;5.01;99.99
63051;SHT30;49136;47.416;19.402;2022-11-24T02:17:34;5.07;99.99
63051;SHT30;49136;47.416;19.402;2022-11-24T02:20:02;5.04;99.99
63051;SHT30;49136;47.416;19.402;2022-11-24T02:27:42;5.03;99.99
63051;SHT30;49136;47.416;19.402;2022-11-24T02:30:08;5.10;99.99
63051;SHT30;49136;47.416;19.402;2022-11-24T02:32:33;5.04;99.99
63051;SHT30;49136;47.416;19.402;2022-11-24T02:35:03;5.05;99.99
63051;SHT30;49136;47.416;19.402;2022-11-24T02:37:29;5.03;99.99
63051;SHT30;49136;47.416;19.402;2022-11-24T02:39:54;5.05;99.99
63051;SHT30;49136;47.416;19.402;2022-11-24T02:42:20;5.05;99.99
63051;SHT30;49136;47.416;19.402;2022-11-24T02:44:48;5.07;99.99
63051;SHT30;49136;47.416;19.402;2022-11-24T02:47:14;5.04;99.99
63051;SHT30;49136;47.416;19.402;2022-11-24T02:49:39;5.04;99.99
63051;SHT30;49136;47.416;19.402;2022-11-24T02:52:05;5.05;99.99
63051;SHT30;49136;47.416;19.402;2022-11-24T02:54:31;5.05;99.99
63051;SHT30;49136;47.416;19.402;2022-11-24T02:56:57;5.04;99.99
63051;SHT30;49136;47.416;19.402;2022-11-24T02:59:22;5.03;99.99
63051;SHT30;49136;47.416;19.402;2022-11-24T03:01:48;5.05;99.99
63051;SHT30;49136;47.416;19.402;2022-11-24T03:04:14;5.03;99.99
63051;SHT30;49136;47.416;19.402;2022-11-24T03:06:39;5.04;99.99
63051;SHT30;49136;47.416;19.402;2022-11-24T03:09:05;5.03;99.99
63051;SHT30;49136;47.416;19.402;2022-11-24T03:11:30;5.03;99.99
63051;SHT30;49136;47.416;19.402;2022-11-24T03:13:56;5.04;99.99
63051;SHT30;49136;47.416;19.402;2022-11-24T03:16:21;5.04;99.99
63051;SHT30;49136;47.416;19.402;2022-11-24T03:18:46;5.03;99.99
63051;SHT30;49136;47.416;19.402;2022-11-24T03:21:14;5.04;99.99
63051;SHT30;49136;47.416;19.402;2022-11-24T03:23:39;5.03;99.99
63051;SHT30;49136;47.416;19.402;2022-11-24T03:26:12;5.03;99.99
63051;SHT30;49136;47.416;19.402;2022-11-24T03:28:38;5.04;99.99
63051;SHT30;49136;47.416;19.402;2022-11-24T03:31:05;5.05;99.99
63051;SHT30;49136;47.416;19.402;2022-11-24T03:33:30;5.04;99.99
63051;SHT30;49136;47.416;19.402;2022-11-24T03:35:56;5.04;99.99
63051;SHT30;49136;47.416;19.402;2022-11-24T03:38:21;5.10;99.99
63051;SHT30;49136;47.416;19.402;2022-11-24T03:40:46;5.08;99.99
63051;SHT30;49136;47.416;19.402;2022-11-24T03:43:12;5.07;99.99
63051;SHT30;49136;47.416;19.402;2022-11-24T03:45:37;5.08;99.99
63051;SHT30;49136;47.416;19.402;2022-11-24T03:48:03;5.07;99.99
63051;SHT30;49136;47.416;19.402;2022-11-24T03:50:28;5.05;99.99
63051;SHT30;49136;47.416;19.402;2022-11-24T03:52:54;5.04;99.99
63051;SHT30;49136;47.416;19.402;2022-11-24T03:55:19;5.04;99.99
63051;SHT30;49136;47.416;19.402;2022-11-24T03:57:45;5.05;99.99
63051;SHT30;49136;47.416;19.402;2022-11-24T04:00:10;5.05;99.99
63051;SHT30;49136;47.416;19.402;2022-11-24T04:02:36;5.05;99.99
63051;SHT30;49136;47.416;19.402;2022-11-24T04:05:02;5.11;99.99
63051;SHT30;49136;47.416;19.402;2022-11-24T04:07:28;5.04;99.99
63051;SHT30;49136;47.416;19.402;2022-11-24T04:09:53;5.01;99.99
63051;SHT30;49136;47.416;19.402;2022-11-24T04:12:18;4.95;99.99
63051;SHT30;49136;47.416;19.402;2022-11-24T04:15:03;4.94;99.99
63051;SHT30;49136;47.416;19.402;2022-11-24T04:17:28;4.88;99.99
63051;SHT30;49136;47.416;19.402;2022-11-24T04:19:54;4.87;99.99
63051;SHT30;49136;47.416;19.402;2022-11-24T04:22:19;4.84;99.99
63051;SHT30;49136;47.416;19.402;2022-11-24T04:24:44;4.86;99.99
63051;SHT30;49136;47.416;19.402;2022-11-24T04:27:10;4.81;99.99
63051;SHT30;49136;47.416;19.402;2022-11-24T04:29:35;4.80;99.99
63051;SHT30;49136;47.416;19.402;2022-11-24T04:32:00;4.83;99.99
63051;SHT30;49136;47.416;19.402;2022-11-24T04:34:26;4.79;99.99
63051;SHT30;49136;47.416;19.402;2022-11-24T04:36:51;4.80;99.99
63051;SHT30;49136;47.416;19.402;2022-11-24T04:39:17;4.80;99.99
63051;SHT30;49136;47.416;19.402;2022-11-24T04:41:42;4.77;99.99
63051;SHT30;49136;47.416;19.402;2022-11-24T04:44:08;4.77;99.99
63051;SHT30;49136;47.416;19.402;2022-11-24T04:46:33;4.79;99.99
63051;SHT30;49136;47.416;19.402;2022-11-24T04:48:58;4.77;99.99
63051;SHT30;49136;47.416;19.402;2022-11-24T04:51:24;4.79;99.99
63051;SHT30;49136;47.416;19.402;2022-11-24T04:53:49;4.76;99.99
63051;SHT30;49136;47.416;19.402;2022-11-24T04:56:15;4.73;99.99
63051;SHT30;49136;47.416;19.402;2022-11-24T04:58:40;4.79;99.99
63051;SHT30;49136;47.416;19.402;2022-11-24T05:01:07;4.75;99.99
63051;SHT30;49136;47.416;19.402;2022-11-24T05:03:33;4.76;99.99
63051;SHT30;49136;47.416;19.402;2022-11-24T05:05:58;4.75;99.99
63051;SHT30;49136;47.416;19.402;2022-11-24T05:08:24;4.73;99.99
63051;SHT30;49136;47.416;19.402;2022-11-24T05:10:49;4.69;99.99
63051;SHT30;49136;47.416;19.402;2022-11-24T05:13:15;4.72;99.99
63051;SHT30;49136;47.416;19.402;2022-11-24T05:15:40;4.70;99.99
63051;SHT30;49136;47.416;19.402;2022-11-24T05:18:15;4.66;99.99
63051;SHT30;49136;47.416;19.402;2022-11-24T05:20:41;4.72;99.99
63051;SHT30;49136;47.416;19.402;2022-11-24T05:23:09;4.66;99.99
63051;SHT30;49136;47.416;19.402;2022-11-24T05:25:34;4.66;99.99
63051;SHT30;49136;47.416;19.402;2022-11-24T05:28:01;4.66;99.99
63051;SHT30;49136;47.416;19.402;2022-11-24T05:30:27;4.63;99.99
63051;SHT30;49136;47.416;19.402;2022-11-24T05:32:52;4.63;99.99
63051;SHT30;49136;47.416;19.402;2022-11-24T05:35:18;4.62;99.99
63051;SHT30;49136;47.416;19.402;2022-11-24T05:37:43;4.59;99.99
63051;SHT30;49136;47.416;19.402;2022-11-24T05:40:09;4.58;99.99
63051;SHT30;49136;47.416;19.402;2022-11-24T05:42:35;4.56;99.99
63051;SHT30;49136;47.416;19.402;2022-11-24T05:45:12;4.62;99.99
63051;SHT30;49136;47.416;19.402;2022-11-24T05:47:39;4.58;99.99
63051;SHT30;49136;47.416;19.402;2022-11-24T05:50:05;4.51;99.99
63051;SHT30;49136;47.416;19.402;2022-11-24T05:52:30;4.55;99.99
63051;SHT30;49136;47.416;19.402;2022-11-24T05:54:56;4.46;99.99
63051;SHT30;49136;47.416;19.402;2022-11-24T05:57:21;4.51;99.99
63051;SHT30;49136;47.416;19.402;2022-11-24T05:59:47;4.38;99.99
63051;SHT30;49136;47.416;19.402;2022-11-24T06:02:14;4.35;99.99
63051;SHT30;49136;47.416;19.402;2022-11-24T06:04:39;4.33;99.99
63051;SHT30;49136;47.416;19.402;2022-11-24T06:07:08;4.31;99.99
63051;SHT30;49136;47.416;19.402;2022-11-24T06:09:36;4.25;99.99
63051;SHT30;49136;47.416;19.402;2022-11-24T06:12:02;4.27;99.99
63051;SHT30;49136;47.416;19.402;2022-11-24T06:14:28;4.24;99.99
63051;SHT30;49136;47.416;19.402;2022-11-24T06:16:53;4.25;99.99
63051;SHT30;49136;47.416;19.402;2022-11-24T06:19:18;4.24;99.99
63051;SHT30;49136;47.416;19.402;2022-11-24T06:21:44;4.24;99.99
63051;SHT30;49136;47.416;19.402;2022-11-24T06:24:09;4.18;99.99
63051;SHT30;49136;47.416;19.402;2022-11-24T06:26:35;4.20;99.99
63051;SHT30;49136;47.416;19.402;2022-11-24T06:29:00;4.24;99.99
63051;SHT30;49136;47.416;19.402;2022-11-24T06:31:26;4.28;99.99
63051;SHT30;49136;47.416;19.402;2022-11-24T06:33:51;4.24;99.99
63051;SHT30;49136;47.416;19.402;2022-11-24T06:36:17;4.27;99.99
63051;SHT30;49136;47.416;19.402;2022-11-24T06:38:42;4.24;99.99
63051;SHT30;49136;47.416;19.402;2022-11-24T06:41:13;4.25;99.99
63051;SHT30;49136;47.416;19.402;2022-11-24T06:43:38;4.22;99.99
63051;SHT30;49136;47.416;19.402;2022-11-24T06:46:04;4.30;99.99
63051;SHT30;49136;47.416;19.402;2022-11-24T06:48:30;4.31;99.99
63051;SHT30;49136;47.416;19.402;2022-11-24T06:51:05;4.34;99.99
63051;SHT30;49136;47.416;19.402;2022-11-24T06:53:35;4.40;99.99
63051;SHT30;49136;47.416;19.402;2022-11-24T06:56:09;4.37;99.99
63051;SHT30;49136;47.416;19.402;2022-11-24T06:58:42;4.40;99.99
63051;SHT30;49136;47.416;19.402;2022-11-24T07:01:12;4.45;99.99
63051;SHT30;49136;47.416;19.402;2022-11-24T07:03:37;4.48;99.99
63051;SHT30;49136;47.416;19.402;2022-11-24T07:06:03;4.48;99.99
63051;SHT30;49136;47.416;19.402;2022-11-24T07:08:28;4.51;99.99
63051;SHT30;49136;47.416;19.402;2022-11-24T07:10:54;4.53;99.99
63051;SHT30;49136;47.416;19.402;2022-11-24T07:13:19;4.51;99.99
63051;SHT30;49136;47.416;19.402;2022-11-24T07:15:45;4.56;99.99
63051;SHT30;49136;47.416;19.402;2022-11-24T07:18:10;4.60;99.99
63051;SHT30;49136;47.416;19.402;2022-11-24T07:20:36;4.59;99.99
63051;SHT30;49136;47.416;19.402;2022-11-24T07:23:01;4.63;99.99
63051;SHT30;49136;47.416;19.402;2022-11-24T07:25:27;4.66;99.99
63051;SHT30;49136;47.416;19.402;2022-11-24T07:27:59;4.66;99.99
63051;SHT30;49136;47.416;19.402;2022-11-24T07:30:25;4.68;99.99
63051;SHT30;49136;47.416;19.402;2022-11-24T07:32:57;4.68;99.99
63051;SHT30;49136;47.416;19.402;2022-11-24T07:35:22;4.72;99.99
63051;SHT30;49136;47.416;19.402;2022-11-24T07:37:48;4.75;99.99
63051;SHT30;49136;47.416;19.402;2022-11-24T07:40:13;4.80;99.99
63051;SHT30;49136;47.416;19.402;2022-11-24T07:42:38;4.84;99.99
63051;SHT30;49136;47.416;19.402;2022-11-24T07:45:04;4.84;99.99
63051;SHT30;49136;47.416;19.402;2022-11-24T07:47:31;4.87;99.99
63051;SHT30;49136;47.416;19.402;2022-11-24T07:49:56;4.90;99.99
63051;SHT30;49136;47.416;19.402;2022-11-24T07:52:21;4.94;99.99
63051;SHT30;49136;47.416;19.402;2022-11-24T07:54:50;4.93;99.99
63051;SHT30;49136;47.416;19.402;2022-11-24T07:57:16;5.03;99.99
63051;SHT30;49136;47.416;19.402;2022-11-24T07:59:41;5.04;99.99
63051;SHT30;49136;47.416;19.402;2022-11-24T08:02:09;5.03;99.99
63051;SHT30;49136;47.416;19.402;2022-11-24T08:04:35;5.05;99.99
63051;SHT30;49136;47.416;19.402;2022-11-24T08:07:01;5.12;99.99
63051;SHT30;49136;47.416;19.402;2022-11-24T08:09:26;5.22;99.99
63051;SHT30;49136;47.416;19.402;2022-11-24T08:11:53;5.25;99.99
63051;SHT30;49136;47.416;19.402;2022-11-24T08:14:18;5.29;99.99
63051;SHT30;49136;47.416;19.402;2022-11-24T08:16:44;5.43;99.99
63051;SHT30;49136;47.416;19.402;2022-11-24T08:19:09;5.42;99.99
63051;SHT30;49136;47.416;19.402;2022-11-24T08:21:36;5.46;99.99
63051;SHT30;49136;47.416;19.402;2022-11-24T08:24:02;5.50;99.99
63051;SHT30;49136;47.416;19.402;2022-11-24T08:26:27;5.50;99.99
63051;SHT30;49136;47.416;19.402;2022-11-24T08:28:55;5.54;99.99
63051;SHT30;49136;47.416;19.402;2022-11-24T08:31:21;5.57;99.98
63051;SHT30;49136;47.416;19.402;2022-11-24T08:33:46;5.57;99.97
63051;SHT30;49136;47.416;19.402;2022-11-24T08:36:17;5.54;99.22
63051;SHT30;49136;47.416;19.402;2022-11-24T08:38:42;5.57;99.71
63051;SHT30;49136;47.416;19.402;2022-11-24T08:41:11;5.57;99.50
63051;SHT30;49136;47.416;19.402;2022-11-24T08:43:37;5.62;99.41
63051;SHT30;49136;47.416;19.402;2022-11-24T08:46:08;5.63;99.12
63051;SHT30;49136;47.416;19.402;2022-11-24T08:48:34;5.71;98.64
63051;SHT30;49136;47.416;19.402;2022-11-24T08:51:15;5.75;98.49
63051;SHT30;49136;47.416;19.402;2022-11-24T08:53:42;5.78;97.76
63051;SHT30;49136;47.416;19.402;2022-11-24T08:56:09;5.80;97.20
63051;SHT30;49136;47.416;19.402;2022-11-24T08:58:35;5.90;97.33
63051;SHT30;49136;47.416;19.402;2022-11-24T09:01:09;6.02;97.96
63051;SHT30;49136;47.416;19.402;2022-11-24T09:03:35;6.02;96.61
63051;SHT30;49136;47.416;19.402;2022-11-24T09:06:02;6.16;96.82
63051;SHT30;49136;47.416;19.402;2022-11-24T09:08:31;6.21;95.54
63051;SHT30;49136;47.416;19.402;2022-11-24T09:11:01;6.23;96.38
63051;SHT30;49136;47.416;19.402;2022-11-24T09:13:28;6.36;95.93
63051;SHT30;49136;47.416;19.402;2022-11-24T09:15:53;6.49;95.83
63051;SHT30;49136;47.416;19.402;2022-11-24T09:18:18;6.53;95.26
63051;SHT30;49136;47.416;19.402;2022-11-24T09:20:44;6.57;95.57
63051;SHT30;49136;47.416;19.402;2022-11-24T09:23:09;6.63;95.02
63051;SHT30;49136;47.416;19.402;2022-11-24T09:25:35;6.53;94.36
63051;SHT30;49136;47.416;19.402;2022-11-24T09:28:01;6.56;94.45
63051;SHT30;49136;47.416;19.402;2022-11-24T09:30:27;6.61;95.02
63051;SHT30;49136;47.416;19.402;2022-11-24T09:32:54;6.57;93.37
63051;SHT30;49136;47.416;19.402;2022-11-24T09:35:20;6.56;93.33
63051;SHT30;49136;47.416;19.402;2022-11-24T09:37:45;6.68;93.62
63051;SHT30;49136;47.416;19.402;2022-11-24T09:40:13;6.87;94.09
63051;SHT30;49136;47.416;19.402;2022-11-24T09:42:57;6.70;92.18
63051;SHT30;49136;47.416;19.402;2022-11-24T09:45:41;6.71;91.46
63051;SHT30;49136;47.416;19.402;2022-11-24T09:48:25;6.87;93.23
63051;SHT30;49136;47.416;19.402;2022-11-24T09:50:52;6.87;92.92
63051;SHT30;49136;47.416;19.402;2022-11-24T09:53:31;6.89;93.43
63051;SHT30;49136;47.416;19.402;2022-11-24T09:56:02;6.87;93.07
63051;SHT30;49136;47.416;19.402;2022-11-24T09:58:42;6.84;92.79
63051;SHT30;49136;47.416;19.402;2022-11-24T10:01:36;6.80;91.14
63051;SHT30;49136;47.416;19.402;2022-11-24T10:04:02;6.95;92.04
63051;SHT30;49136;47.416;19.402;2022-11-24T10:06:29;7.09;93.20
63051;SHT30;49136;47.416;19.402;2022-11-24T10:14:51;6.87;91.99
63051;SHT30;49136;47.416;19.402;2022-11-24T10:28:15;7.28;90.37
63051;SHT30;49136;47.416;19.402;2022-11-24T10:30:41;7.38;90.11
63051;SHT30;49136;47.416;19.402;2022-11-24T10:35:45;7.62;90.95
63051;SHT30;49136;47.416;19.402;2022-11-24T10:40:46;7.79;90.29
63051;SHT30;49136;47.416;19.402;2022-11-24T10:43:13;7.87;90.50
63051;SHT30;49136;47.416;19.402;2022-11-24T10:45:39;7.92;90.37
63051;SHT30;49136;47.416;19.402;2022-11-24T10:48:10;7.86;88.86
63051;SHT30;49136;47.416;19.402;2022-11-24T10:50:39;7.85;88.18
63051;SHT30;49136;47.416;19.402;2022-11-24T10:53:18;8.10;91.27
63051;SHT30;49136;47.416;19.402;2022-11-24T10:55:56;8.10;89.78
63051;SHT30;49136;47.416;19.402;2022-11-24T11:00:46;8.10;89.02
63051;SHT30;49136;47.416;19.402;2022-11-24T11:03:25;8.17;90.89
63051;SHT30;49136;47.416;19.402;2022-11-24T11:06:19;8.09;91.11
63051;SHT30;49136;47.416;19.402;2022-11-24T11:08:46;8.02;90.72
63051;SHT30;49136;47.416;19.402;2022-11-24T11:11:28;7.92;91.70
63051;SHT30;49136;47.416;19.402;2022-11-24T11:13:56;7.81;91.38
63051;SHT30;49136;47.416;19.402;2022-11-24T11:19:01;7.57;91.67
63051;SHT30;49136;47.416;19.402;2022-11-24T11:23:56;7.47;90.57
63051;SHT30;49136;47.416;19.402;2022-11-24T11:31:34;7.48;91.55
63051;SHT30;49136;47.416;19.402;2022-11-24T11:36:53;7.55;91.40
63051;SHT30;49136;47.416;19.402;2022-11-24T11:39:37;7.50;91.58
63051;SHT30;49136;47.416;19.402;2022-11-24T11:44:56;7.59;90.41
63051;SHT30;49136;47.416;19.402;2022-11-24T11:47:27;7.67;89.83
63051;SHT30;49136;47.416;19.402;2022-11-24T11:49:54;7.72;90.23
63051;SHT30;49136;47.416;19.402;2022-11-24T11:52:32;7.81;90.13
63051;SHT30;49136;47.416;19.402;2022-11-24T11:55:21;7.82;89.06
63051;SHT30;49136;47.416;19.402;2022-11-24T12:00:34;8.00;89.46
63051;SHT30;49136;47.416;19.402;2022-11-24T12:03:31;8.10;89.71
63051;SHT30;49136;47.416;19.402;2022-11-24T12:06:21;8.20;87.32
63051;SHT30;49136;47.416;19.402;2022-11-24T12:09:08;8.34;87.58
63051;SHT30;49136;47.416;19.402;2022-11-24T12:14:43;8.81;87.83
63051;SHT30;49136;47.416;19.402;2022-11-24T12:20:13;8.65;84.71
63051;SHT30;49136;47.416;19.402;2022-11-24T12:22:51;9.07;85.37
63051;SHT30;49136;47.416;19.402;2022-11-24T12:25:25;8.84;86.30
63051;SHT30;49136;47.416;19.402;2022-11-24T12:30:35;8.69;87.07
63051;SHT30;49136;47.416;19.402;2022-11-24T12:33:13;8.62;86.52
63051;SHT30;49136;47.416;19.402;2022-11-24T12:35:43;8.51;86.78
63051;SHT30;49136;47.416;19.402;2022-11-24T12:38:28;8.48;86.62
63051;SHT30;49136;47.416;19.402;2022-11-24T12:43:34;8.31;87.72
63051;SHT30;49136;47.416;19.402;2022-11-24T12:46:13;8.17;87.78
63051;SHT30;49136;47.416;19.402;2022-11-24T12:51:13;8.16;86.82
63051;SHT30;49136;47.416;19.402;2022-11-24T12:53:40;8.45;85.47
63051;SHT30;49136;47.416;19.402;2022-11-24T12:56:10;8.61;84.61
63051;SHT30;49136;47.416;19.402;2022-11-24T12:58:54;8.81;84.72
63051;SHT30;49136;47.416;19.402;2022-11-24T13:09:10;9.10;84.16
63051;SHT30;49136;47.416;19.402;2022-11-24T13:11:43;9.25;83.41
63051;SHT30;49136;47.416;19.402;2022-11-24T13:14:21;9.34;84.76
63051;SHT30;49136;47.416;19.402;2022-11-24T13:19:34;9.34;83.06
63051;SHT30;49136;47.416;19.402;2022-11-24T13:22:08;9.46;84.86
63051;SHT30;49136;47.416;19.402;2022-11-24T13:24:36;9.45;84.07
63051;SHT30;49136;47.416;19.402;2022-11-24T13:29:44;8.84;84.51
63051;SHT30;49136;47.416;19.402;2022-11-24T13:56:04;7.10;90.76
63051;SHT30;49136;47.416;19.402;2022-11-24T14:04:18;7.00;91.03
63051;SHT30;49136;47.416;19.402;2022-11-24T14:06:38;7.02;91.00
63051;SHT30;49136;47.416;19.402;2022-11-24T14:09:40;6.98;90.97
63051;SHT30;49136;47.416;19.402;2022-11-24T14:12:14;7.02;90.63
63051;SHT30;49136;47.416;19.402;2022-11-24T14:14:41;6.99;90.03
63051;SHT30;49136;47.416;19.402;2022-11-24T14:17:14;6.96;90.06
63051;SHT30;49136;47.416;19.402;2022-11-24T14:19:42;6.96;90.06
63051;SHT30;49136;47.416;19.402;2022-11-24T14:22:23;6.91;90.27
63051;SHT30;49136;47.416;19.402;2022-11-24T14:24:56;6.82;90.68
63051;SHT30;49136;47.416;19.402;2022-11-24T14:32:22;6.58;92.73
63051;SHT30;49136;47.416;19.402;2022-11-24T14:34:48;6.57;92.18
63051;SHT30;49136;47.416;19.402;2022-11-24T14:37:13;6.63;92.07
63051;SHT30;49136;47.416;19.402;2022-11-24T14:39:40;6.56;92.10
63051;SHT30;49136;47.416;19.402;2022-11-24T14:47:15;6.37;93.01
63051;SHT30;49136;47.416;19.402;2022-11-24T14:49:42;6.32;93.27
63051;SHT30;49136;47.416;19.402;2022-11-24T14:52:13;6.23;93.89
63051;SHT30;49136;47.416;19.402;2022-11-24T14:54:56;6.18;93.96
63051;SHT30;49136;47.416;19.402;2022-11-24T14:57:25;6.09;93.97
63051;SHT30;49136;47.416;19.402;2022-11-24T15:02:43;6.15;93.74
63051;SHT30;49136;47.416;19.402;2022-11-24T15:05:10;6.12;94.46
63051;SHT30;49136;47.416;19.402;2022-11-24T15:07:38;6.09;93.84
63051;SHT30;49136;47.416;19.402;2022-11-24T15:12:52;5.98;94.18
63051;SHT30;49136;47.416;19.402;2022-11-24T15:15:20;6.02;93.98
63051;SHT30;49136;47.416;19.402;2022-11-24T15:17:48;5.98;93.92
63051;SHT30;49136;47.416;19.402;2022-11-24T15:20:36;5.87;94.94
63051;SHT30;49136;47.416;19.402;2022-11-24T15:23:30;5.84;94.79
63051;SHT30;49136;47.416;19.402;2022-11-24T15:31:43;5.94;93.89
63051;SHT30;49136;47.416;19.402;2022-11-24T15:34:12;5.88;94.16
63051;SHT30;49136;47.416;19.402;2022-11-24T15:36:38;5.95;93.17
63051;SHT30;49136;47.416;19.402;2022-11-24T15:39:03;5.97;93.24
63051;SHT30;49136;47.416;19.402;2022-11-24T15:41:31;6.08;92.10
63051;SHT30;49136;47.416;19.402;2022-11-24T15:43:57;6.01;92.74
63051;SHT30;49136;47.416;19.402;2022-11-24T15:46:27;6.12;92.26
63051;SHT30;49136;47.416;19.402;2022-11-24T15:48:52;5.99;93.34
63051;SHT30;49136;47.416;19.402;2022-11-24T15:51:18;6.05;92.65
63051;SHT30;49136;47.416;19.402;2022-11-24T15:53:46;5.94;93.35
63051;SHT30;49136;47.416;19.402;2022-11-24T15:56:27;5.99;93.31
63051;SHT30;49136;47.416;19.402;2022-11-24T15:58:53;5.94;94.05
63051;SHT30;49136;47.416;19.402;2022-11-24T16:01:20;5.83;94.05
63051;SHT30;49136;47.416;19.402;2022-11-24T16:03:46;5.93;93.40
63051;SHT30;49136;47.416;19.402;2022-11-24T16:06:14;5.81;93.89
63051;SHT30;49136;47.416;19.402;2022-11-24T16:08:40;5.73;94.43
63051;SHT30;49136;47.416;19.402;2022-11-24T16:11:05;5.59;95.03
63051;SHT30;49136;47.416;19.402;2022-11-24T16:13:30;5.56;95.27
63051;SHT30;49136;47.416;19.402;2022-11-24T16:15:56;5.46;95.64
63051;SHT30;49136;47.416;19.402;2022-11-24T16:18:21;5.39;95.63
63051;SHT30;49136;47.416;19.402;2022-11-24T16:20:46;5.25;96.49
63051;SHT30;49136;47.416;19.402;2022-11-24T16:23:12;5.07;97.39
63051;SHT30;49136;47.416;19.402;2022-11-24T16:25:38;5.04;98.12
63051;SHT30;49136;47.416;19.402;2022-11-24T16:28:22;4.91;98.15
63051;SHT30;49136;47.416;19.402;2022-11-24T16:30:50;4.93;98.30
63051;SHT30;49136;47.416;19.402;2022-11-24T16:33:16;4.81;98.86
63051;SHT30;49136;47.416;19.402;2022-11-24T16:35:41;4.75;99.13
63051;SHT30;49136;47.416;19.402;2022-11-24T16:38:16;4.68;99.63
63051;SHT30;49136;47.416;19.402;2022-11-24T16:40:41;4.72;99.99
63051;SHT30;49136;47.416;19.402;2022-11-24T16:43:07;4.69;99.99
63051;SHT30;49136;47.416;19.402;2022-11-24T16:45:32;4.63;99.99
63051;SHT30;49136;47.416;19.402;2022-11-24T16:47:59;4.63;99.99
63051;SHT30;49136;47.416;19.402;2022-11-24T16:50:24;4.55;99.99
63051;SHT30;49136;47.416;19.402;2022-11-24T16:52:50;4.48;99.99
63051;SHT30;49136;47.416;19.402;2022-11-24T16:55:15;4.48;99.99
63051;SHT30;49136;47.416;19.402;2022-11-24T16:57:40;4.46;99.99
63051;SHT30;49136;47.416;19.402;2022-11-24T17:00:06;4.42;99.99
63051;SHT30;49136;47.416;19.402;2022-11-24T17:02:32;4.37;99.99
63051;SHT30;49136;47.416;19.402;2022-11-24T17:04:58;4.34;99.99
63051;SHT30;49136;47.416;19.402;2022-11-24T17:07:23;4.27;99.99
63051;SHT30;49136;47.416;19.402;2022-11-24T17:09:49;4.17;99.99
63051;SHT30;49136;47.416;19.402;2022-11-24T17:12:14;4.09;99.99
63051;SHT30;49136;47.416;19.402;2022-11-24T17:14:39;3.96;99.99
63051;SHT30;49136;47.416;19.402;2022-11-24T17:17:05;3.86;99.99
63051;SHT30;49136;47.416;19.402;2022-11-24T17:19:30;3.78;99.99
63051;SHT30;49136;47.416;19.402;2022-11-24T17:21:56;3.64;99.99
63051;SHT30;49136;47.416;19.402;2022-11-24T17:24:21;3.51;99.99
63051;SHT30;49136;47.416;19.402;2022-11-24T17:26:48;3.45;99.99
63051;SHT30;49136;47.416;19.402;2022-11-24T17:29:14;3.30;99.99
63051;SHT30;49136;47.416;19.402;2022-11-24T17:31:43;3.23;99.99
63051;SHT30;49136;47.416;19.402;2022-11-24T17:34:09;3.17;99.99
63051;SHT30;49136;47.416;19.402;2022-11-24T17:36:35;3.24;99.99
63051;SHT30;49136;47.416;19.402;2022-11-24T17:39:02;3.19;99.99
63051;SHT30;49136;47.416;19.402;2022-11-24T17:41:28;3.07;99.99
63051;SHT30;49136;47.416;19.402;2022-11-24T17:43:54;3.07;99.99
63051;SHT30;49136;47.416;19.402;2022-11-24T17:46:21;2.98;99.99
63051;SHT30;49136;47.416;19.402;2022-11-24T17:48:46;2.93;99.99